Terminal Aerodrome Forecast
Issued by NWS

Current Version | Previous Version | Graphics & Text | Print | Product List | Glossary On
Versions: 1 2 3 4 5 6 7 8 9 10 11 12 13 14 15 16 17 18 19 20 21 22
054
FTUS41 KPBZ 270533
TAFMGW
TAF
KMGW 270533Z 2706/2806 19007KT 6SM -SHRA BKN050
     FM271000 21005KT P6SM VCSH OVC025
     FM271400 22006KT P6SM OVC045
     FM280200 18003KT P6SM VCSH BKN090=

USA.gov is the U.S. government's official web portal to all federal, state and local government web resources and services.